Time;durP1;ratioP1;P1;durP2;ratioP2;P2;SDS_P1;SDS_P2;PMS_P1;PMS_P2;Temp;Humidity;BMP_temperature;BMP_pressure;BME280_temperature;BME280_humidity;BME280_pressure;Samples;Min_cycle;Max_cycle;Signal;HPM_P1;HPM_P2
2024/02/02 00:02:06;;;;;;;;;19.00;18.00;;;;;;;;4978350;28;46019;-71
2024/02/02 00:04:32;;;;;;;;;18.00;18.00;;;;;;;;4967440;28;45539;-72
2024/02/02 00:06:57;;;;;;;;;17.75;17.75;;;;;;;;4978674;28;45603;-72
2024/02/02 00:09:22;;;;;;;;;23.00;19.33;;;;;;;;4974480;28;45489;-72
2024/02/02 00:11:48;;;;;;;;;14.67;14.67;;;;;;;;4980522;28;46597;-72
2024/02/02 00:14:13;;;;;;;;;23.50;19.50;;;;;;;;4980163;28;45405;-72
2024/02/02 00:16:38;;;;;;;;;24.00;21.00;;;;;;;;4980674;28;45416;-72
2024/02/02 00:19:03;;;;;;;;;25.67;23.67;;;;;;;;4980472;28;45444;-72
2024/02/02 00:21:29;;;;;;;;;20.75;18.75;;;;;;;;4980070;28;46399;-72
2024/02/02 00:23:54;;;;;;;;;23.25;22.00;;;;;;;;4979847;28;45377;-72
2024/02/02 00:26:19;;;;;;;;;21.67;20.33;;;;;;;;4980234;28;45673;-72
2024/02/02 00:28:44;;;;;;;;;21.00;21.00;;;;;;;;4979299;28;45551;-72
2024/02/02 00:31:09;;;;;;;;;26.00;23.00;;;;;;;;4979985;28;46049;-72
2024/02/02 00:33:34;;;;;;;;;24.00;20.00;;;;;;;;4969307;28;45566;-72
2024/02/02 00:36:01;;;;;;;;;18.67;17.67;;;;;;;;4980156;28;45515;-72
2024/02/02 00:38:26;;;;;;;;;20.50;17.25;;;;;;;;4978895;28;45647;-72
2024/02/02 00:40:51;;;;;;;;;20.00;20.00;;;;;;;;4979925;28;46468;-72
2024/02/02 00:43:16;;;;;;;;;19.33;16.67;;;;;;;;4979973;28;45428;-72
2024/02/02 00:45:41;;;;;;;;;18.67;18.67;;;;;;;;4980175;28;45521;-72
2024/02/02 00:48:07;;;;;;;;;18.33;16.67;;;;;;;;4962094;28;45306;-72
2024/02/02 00:50:32;;;;;;;;;19.75;14.25;;;;;;;;4979741;28;46484;-72
2024/02/02 00:52:57;;;;;;;;;15.33;14.33;;;;;;;;4979934;28;45305;-72
2024/02/02 00:55:23;;;;;;;;;16.00;14.50;;;;;;;;4980377;28;45412;-72
2024/02/02 00:57:48;;;;;;;;;15.50;13.50;;;;;;;;4979255;28;45476;-72
2024/02/02 01:00:14;;;;;;;;;12.67;11.33;;;;;;;;4979865;28;45487;-72
2024/02/02 01:02:39;;;;;;;;;14.33;12.00;;;;;;;;4974529;28;45362;-72
2024/02/02 01:05:04;;;;;;;;;9.75;8.75;;;;;;;;4969003;28;45454;-72
2024/02/02 01:07:31;;;;;;;;;16.25;15.75;;;;;;;;4978327;28;45408;-72
2024/02/02 01:09:56;;;;;;;;;19.00;13.50;;;;;;;;4978981;28;45349;-72
2024/02/02 01:12:21;;;;;;;;;8.33;8.33;;;;;;;;4979574;28;45435;-72
2024/02/02 01:14:46;;;;;;;;;14.33;11.00;;;;;;;;4979521;28;45412;-72
2024/02/02 01:17:11;;;;;;;;;15.33;13.67;;;;;;;;4979604;28;45323;-72
2024/02/02 01:19:37;;;;;;;;;19.25;15.75;;;;;;;;4979278;28;46111;-72
2024/02/02 01:22:02;;;;;;;;;16.33;16.00;;;;;;;;4979249;28;45586;-72
2024/02/02 01:24:27;;;;;;;;;16.00;14.75;;;;;;;;4979878;28;45461;-72
2024/02/02 01:26:53;;;;;;;;;15.33;14.00;;;;;;;;4979127;28;45709;-72
2024/02/02 01:29:18;;;;;;;;;19.00;16.25;;;;;;;;4979267;28;46013;-72
2024/02/02 01:31:43;;;;;;;;;19.00;15.00;;;;;;;;4979454;28;45293;-72
2024/02/02 01:34:08;;;;;;;;;16.67;13.67;;;;;;;;4979497;28;45332;-72
2024/02/02 01:36:33;;;;;;;;;16.33;15.00;;;;;;;;4977927;28;45321;-71
2024/02/02 01:38:59;;;;;;;;;19.33;16.00;;;;;;;;4979301;28;46108;-71
2024/02/02 01:41:24;;;;;;;;;22.00;18.75;;;;;;;;4978996;28;45418;-72
2024/02/02 01:43:49;;;;;;;;;16.33;16.33;;;;;;;;4979759;28;45537;-71
2024/02/02 01:46:15;;;;;;;;;24.00;23.00;;;;;;;;4948471;28;45987;-71
2024/02/02 01:48:41;;;;;;;;;31.25;30.00;;;;;;;;4979092;28;46224;-72
2024/02/02 01:51:07;;;;;;;;;26.00;26.00;;;;;;;;4978940;28;45401;-71
2024/02/02 01:53:32;;;;;;;;;27.00;23.75;;;;;;;;4979379;28;45552;-71
2024/02/02 01:55:57;;;;;;;;;24.50;18.75;;;;;;;;4978726;28;45404;-72
2024/02/02 01:58:23;;;;;;;;;27.25;25.50;;;;;;;;4978712;28;45463;-71
2024/02/02 02:00:48;;;;;;;;;26.25;23.75;;;;;;;;4978821;28;45235;-71
2024/02/02 02:03:13;;;;;;;;;24.33;23.00;;;;;;;;4968689;28;45230;-71
2024/02/02 02:05:39;;;;;;;;;23.00;22.67;;;;;;;;4972467;28;45580;-72
2024/02/02 02:08:05;;;;;;;;;29.75;28.50;;;;;;;;4976974;28;45857;-72
2024/02/02 02:10:31;;;;;;;;;27.50;22.75;;;;;;;;4976466;28;45532;-72
2024/02/02 02:12:56;;;;;;;;;32.00;28.75;;;;;;;;4978803;28;45248;-71
2024/02/02 02:15:23;;;;;;;;;58.67;45.67;;;;;;;;4978850;28;45523;-72
2024/02/02 02:17:51;;;;;;;;;34.75;31.50;;;;;;;;4978759;28;46274;-72
2024/02/02 02:20:19;;;;;;;;;29.50;29.50;;;;;;;;4978683;28;45388;-71
2024/02/02 02:22:44;;;;;;;;;30.75;26.25;;;;;;;;4978945;28;45419;-72
2024/02/02 02:25:09;;;;;;;;;28.00;25.67;;;;;;;;4978678;28;45566;-71
2024/02/02 02:27:35;;;;;;;;;28.67;23.00;;;;;;;;4978250;28;46245;-71
2024/02/02 02:30:00;;;;;;;;;34.50;29.25;;;;;;;;4978218;28;45258;-71
2024/02/02 02:32:25;;;;;;;;;26.75;26.75;;;;;;;;4981803;28;45593;-71
2024/02/02 02:34:51;;;;;;;;;23.33;22.00;;;;;;;;4951655;28;45538;-71
2024/02/02 02:37:16;;;;;;;;;25.00;24.33;;;;;;;;4974506;28;45429;-71
2024/02/02 02:39:41;;;;;;;;;20.33;20.00;;;;;;;;4981865;28;45304;-72
2024/02/02 02:42:06;;;;;;;;;26.67;24.00;;;;;;;;4982145;28;45400;-71
2024/02/02 02:44:32;;;;;;;;;28.00;25.67;;;;;;;;4981825;28;45445;-71
2024/02/02 02:46:57;;;;;;;;;29.00;25.50;;;;;;;;4981852;28;45875;-72
2024/02/02 02:49:22;;;;;;;;;54.33;43.00;;;;;;;;4981859;28;45530;-72
2024/02/02 02:51:47;;;;;;;;;68.67;53.00;;;;;;;;4981878;28;45384;-71
2024/02/02 02:54:13;;;;;;;;;37.00;32.25;;;;;;;;4981659;28;45519;-71
2024/02/02 02:56:38;;;;;;;;;29.00;26.00;;;;;;;;4981297;28;45638;-71
2024/02/02 02:59:03;;;;;;;;;25.00;24.00;;;;;;;;4981584;28;45307;-71
2024/02/02 03:01:28;;;;;;;;;21.00;14.00;;;;;;;;4981860;28;45392;-72
2024/02/02 03:03:53;;;;;;;;;23.33;22.67;;;;;;;;4969216;28;45445;-71
2024/02/02 03:06:18;;;;;;;;;29.33;24.00;;;;;;;;4979141;28;46198;-71
2024/02/02 03:08:44;;;;;;;;;22.00;21.33;;;;;;;;4975821;28;45479;-71
2024/02/02 03:11:09;;;;;;;;;29.00;23.00;;;;;;;;4980590;28;45407;-71
2024/02/02 03:13:34;;;;;;;;;21.67;19.00;;;;;;;;4981301;28;45314;-72
2024/02/02 03:15:59;;;;;;;;;23.25;20.25;;;;;;;;4981261;28;46184;-72
2024/02/02 03:18:25;;;;;;;;;26.67;20.33;;;;;;;;4981745;28;45508;-72
2024/02/02 03:20:50;;;;;;;;;24.33;22.33;;;;;;;;4981129;28;45657;-71
2024/02/02 03:23:15;;;;;;;;;34.33;30.00;;;;;;;;4981407;28;45448;-72
2024/02/02 03:25:40;;;;;;;;;39.67;37.00;;;;;;;;4981003;28;45538;-71
2024/02/02 03:28:05;;;;;;;;;27.50;26.50;;;;;;;;4980539;28;45479;-72
2024/02/02 03:30:31;;;;;;;;;24.33;20.00;;;;;;;;4981294;28;45418;-71
2024/02/02 03:32:56;;;;;;;;;21.00;19.00;;;;;;;;4980922;28;45427;-71
2024/02/02 03:35:21;;;;;;;;;21.00;20.00;;;;;;;;4980739;28;46111;-71
2024/02/02 03:37:46;;;;;;;;;20.50;20.25;;;;;;;;4979623;28;45508;-71
2024/02/02 03:40:12;;;;;;;;;21.00;21.00;;;;;;;;4957413;28;45397;-71
2024/02/02 03:42:37;;;;;;;;;26.67;18.33;;;;;;;;4954501;28;45393;-71
2024/02/02 03:45:03;;;;;;;;;20.00;19.00;;;;;;;;4980776;28;45462;-71
2024/02/02 03:47:28;;;;;;;;;24.00;20.50;;;;;;;;4980779;28;45246;-72
2024/02/02 03:49:53;;;;;;;;;21.33;18.00;;;;;;;;4980963;28;45292;-71
2024/02/02 03:52:23;;;;;;;;;21.67;18.33;;;;;;;;4979668;28;45302;-71
2024/02/02 03:54:48;;;;;;;;;17.25;16.25;;;;;;;;4980576;28;46135;-71
2024/02/02 03:57:13;;;;;;;;;19.00;16.00;;;;;;;;4962655;28;45532;-71
2024/02/02 03:59:38;;;;;;;;;25.00;20.00;;;;;;;;4980869;28;45478;-71
2024/02/02 04:02:03;;;;;;;;;18.67;16.00;;;;;;;;4977075;28;45528;-72
2024/02/02 04:04:29;;;;;;;;;19.75;17.25;;;;;;;;4949240;28;46206;-71
2024/02/02 04:06:54;;;;;;;;;20.00;18.75;;;;;;;;4980427;28;45396;-71
2024/02/02 04:09:19;;;;;;;;;17.33;14.00;;;;;;;;4953547;28;45602;-71
2024/02/02 04:11:44;;;;;;;;;19.67;18.67;;;;;;;;4971608;28;45382;-71
2024/02/02 04:14:10;;;;;;;;;19.67;18.00;;;;;;;;4973374;28;45503;-71
2024/02/02 04:16:35;;;;;;;;;15.50;14.75;;;;;;;;4980435;28;45427;-71
2024/02/02 04:19:00;;;;;;;;;17.33;17.33;;;;;;;;4980288;28;45572;-72
2024/02/02 04:21:25;;;;;;;;;19.00;15.00;;;;;;;;4979426;28;45351;-71
2024/02/02 04:23:50;;;;;;;;;25.67;24.00;;;;;;;;4980305;28;45496;-71
2024/02/02 04:26:16;;;;;;;;;49.25;42.25;;;;;;;;4979871;28;45452;-71
2024/02/02 04:28:41;;;;;;;;;31.33;27.67;;;;;;;;4962712;28;45442;-71
2024/02/02 04:31:06;;;;;;;;;27.00;22.67;;;;;;;;4980351;28;45535;-71
2024/02/02 04:33:31;;;;;;;;;18.00;18.00;;;;;;;;4969187;28;45680;-72
2024/02/02 04:35:56;;;;;;;;;16.33;14.67;;;;;;;;4962435;28;45950;-72
2024/02/02 04:38:21;;;;;;;;;17.67;16.33;;;;;;;;4980144;28;45562;-71
2024/02/02 04:40:47;;;;;;;;;15.00;13.33;;;;;;;;4952745;28;45355;-71
2024/02/02 04:43:12;;;;;;;;;12.75;12.25;;;;;;;;4976917;28;46541;-71
2024/02/02 04:45:37;;;;;;;;;17.75;15.50;;;;;;;;4979817;28;45416;-71
2024/02/02 04:48:03;;;;;;;;;19.00;14.00;;;;;;;;4979824;28;45448;-71
2024/02/02 04:50:29;;;;;;;;;14.50;14.00;;;;;;;;4960889;28;45456;-71
2024/02/02 04:52:54;;;;;;;;;22.00;21.00;;;;;;;;4979610;28;45324;-71
2024/02/02 04:55:19;;;;;;;;;18.67;18.33;;;;;;;;4961909;28;45306;-71
2024/02/02 04:57:44;;;;;;;;;28.33;26.33;;;;;;;;4979466;28;45499;-72
2024/02/02 05:00:10;;;;;;;;;25.33;25.33;;;;;;;;4975979;28;45532;-71
2024/02/02 05:02:35;;;;;;;;;25.50;21.50;;;;;;;;4972558;28;46404;-72
2024/02/02 05:05:00;;;;;;;;;18.00;18.00;;;;;;;;4977408;28;45325;-71
2024/02/02 05:07:25;;;;;;;;;17.00;17.00;;;;;;;;4979331;28;45492;-71
2024/02/02 05:09:50;;;;;;;;;16.33;16.33;;;;;;;;4979523;28;45656;-71
2024/02/02 05:12:16;;;;;;;;;18.67;16.33;;;;;;;;4979494;28;45474;-71
2024/02/02 05:14:41;;;;;;;;;20.33;18.67;;;;;;;;4979441;28;45454;-71
2024/02/02 05:17:06;;;;;;;;;14.50;14.00;;;;;;;;4961861;28;45299;-71
2024/02/02 05:19:32;;;;;;;;;18.67;16.67;;;;;;;;4979807;28;45535;-71
2024/02/02 05:21:57;;;;;;;;;17.00;15.67;;;;;;;;4978803;28;45487;-71
2024/02/02 05:24:22;;;;;;;;;22.00;19.33;;;;;;;;4979718;28;45566;-71
2024/02/02 05:26:47;;;;;;;;;65.00;53.00;;;;;;;;4949089;28;46192;-71
2024/02/02 05:29:12;;;;;;;;;39.33;34.67;;;;;;;;4970472;28;45447;-71
2024/02/02 05:31:38;;;;;;;;;20.75;19.25;;;;;;;;4978078;28;47147;-72
2024/02/02 05:34:03;;;;;;;;;15.33;14.00;;;;;;;;4973492;28;45389;-71
2024/02/02 05:36:28;;;;;;;;;11.00;11.00;;;;;;;;4979259;28;45476;-71
2024/02/02 05:38:53;;;;;;;;;16.67;12.33;;;;;;;;4961991;28;45515;-71
2024/02/02 05:41:18;;;;;;;;;13.67;13.33;;;;;;;;4978733;28;46304;-71
2024/02/02 05:43:44;;;;;;;;;14.67;12.67;;;;;;;;4979087;28;45354;-71
2024/02/02 05:46:09;;;;;;;;;13.75;10.25;;;;;;;;4979163;28;45427;-71
2024/02/02 05:48:34;;;;;;;;;14.67;13.00;;;;;;;;4979252;28;45364;-71
2024/02/02 05:51:00;;;;;;;;;13.00;12.75;;;;;;;;4961417;28;45562;-71
2024/02/02 05:53:25;;;;;;;;;13.50;13.00;;;;;;;;4979090;28;45369;-71
2024/02/02 05:55:50;;;;;;;;;14.67;14.67;;;;;;;;4979138;28;45577;-71
2024/02/02 05:58:15;;;;;;;;;22.50;20.25;;;;;;;;4953492;28;45532;-71
2024/02/02 06:00:41;;;;;;;;;21.00;20.33;;;;;;;;4973196;28;45642;-71
2024/02/02 06:03:06;;;;;;;;;24.33;24.33;;;;;;;;4954234;28;45404;-71
2024/02/02 06:05:33;;;;;;;;;7.00;7.00;;;;;;;;4963132;28;45407;-71
2024/02/02 06:08:00;;;;;;;;;12.50;12.00;;;;;;;;4982191;28;45302;-71
2024/02/02 06:10:25;;;;;;;;;14.25;12.00;;;;;;;;4982113;28;45352;-71
2024/02/02 06:12:50;;;;;;;;;12.33;12.33;;;;;;;;4981926;28;45243;-71
2024/02/02 06:15:16;;;;;;;;;8.75;8.75;;;;;;;;4982502;28;45510;-71
2024/02/02 06:17:41;;;;;;;;;15.25;15.25;;;;;;;;4982194;28;45326;-71
2024/02/02 06:20:06;;;;;;;;;8.33;8.33;;;;;;;;4982321;28;46301;-71
2024/02/02 06:22:31;;;;;;;;;11.25;9.50;;;;;;;;4982002;28;45341;-71
2024/02/02 06:24:57;;;;;;;;;14.67;14.00;;;;;;;;4982397;28;45467;-71
2024/02/02 06:27:22;;;;;;;;;17.33;16.33;;;;;;;;4976293;28;45488;-69
2024/02/02 06:29:48;;;;;;;;;20.50;20.50;;;;;;;;4975051;28;46243;-69
2024/02/02 06:32:13;;;;;;;;;17.75;17.25;;;;;;;;4979857;28;45502;-69
2024/02/02 06:34:38;;;;;;;;;12.00;8.00;;;;;;;;4981155;28;45501;-69
2024/02/02 06:37:03;;;;;;;;;11.67;11.00;;;;;;;;4972611;28;45427;-69
2024/02/02 06:39:28;;;;;;;;;12.00;9.00;;;;;;;;4972323;28;46053;-68
2024/02/02 06:41:54;;;;;;;;;12.33;11.00;;;;;;;;4980365;28;45495;-74
2024/02/02 06:44:19;;;;;;;;;11.33;11.00;;;;;;;;4958447;28;45584;-72
2024/02/02 06:46:44;;;;;;;;;11.33;11.00;;;;;;;;4963757;28;45784;-71
2024/02/02 06:49:09;;;;;;;;;7.33;7.33;;;;;;;;4962532;28;48102;-71
2024/02/02 06:51:34;;;;;;;;;8.33;8.33;;;;;;;;4979739;28;45491;-71
2024/02/02 06:54:00;;;;;;;;;5.33;3.67;;;;;;;;4980219;28;45598;-71
2024/02/02 06:56:30;;;;;;;;;8.00;7.25;;;;;;;;4981522;28;45575;-71
2024/02/02 06:58:55;;;;;;;;;13.00;9.75;;;;;;;;4981048;28;45337;-71
2024/02/02 07:01:20;;;;;;;;;12.33;11.33;;;;;;;;4980833;28;46760;-71
2024/02/02 07:03:46;;;;;;;;;14.00;11.00;;;;;;;;4965513;28;45448;-71
2024/02/02 07:06:12;;;;;;;;;12.75;10.00;;;;;;;;4963352;28;45623;-70
2024/02/02 07:08:37;;;;;;;;;14.00;12.50;;;;;;;;4972633;28;46237;-71
2024/02/02 07:11:11;;;;;;;;;7.00;7.00;;;;;;;;4979025;28;45616;-73
2024/02/02 07:13:44;;;;;;;;;12.25;12.25;;;;;;;;4959660;28;45586;-71
2024/02/02 07:16:12;;;;;;;;;12.00;12.00;;;;;;;;4952777;28;45966;-73
2024/02/02 07:18:37;;;;;;;;;16.00;13.00;;;;;;;;4969605;28;46307;-73
2024/02/02 07:21:04;;;;;;;;;15.50;14.00;;;;;;;;4973822;28;45942;-73
2024/02/02 07:23:34;;;;;;;;;14.50;14.50;;;;;;;;4957342;28;45775;-74
2024/02/02 07:25:59;;;;;;;;;9.25;9.25;;;;;;;;4961187;28;45378;-73
2024/02/02 07:28:30;;;;;;;;;18.00;16.75;;;;;;;;4978045;28;46390;-74
2024/02/02 07:30:56;;;;;;;;;12.75;12.00;;;;;;;;4969434;28;45869;-74
2024/02/02 07:33:23;;;;;;;;;18.00;16.00;;;;;;;;4973890;28;45349;-74
2024/02/02 07:35:48;;;;;;;;;18.50;13.75;;;;;;;;4960939;28;46017;-74
2024/02/02 07:38:30;;;;;;;;;12.50;11.75;;;;;;;;4974059;28;46716;-74
2024/02/02 07:41:01;;;;;;;;;12.50;12.50;;;;;;;;4978705;28;45552;-74
2024/02/02 07:43:27;;;;;;;;;13.50;11.00;;;;;;;;4976302;28;45481;-73
2024/02/02 07:45:53;;;;;;;;;11.50;10.00;;;;;;;;4979677;28;45597;-74
2024/02/02 07:48:18;;;;;;;;;15.00;12.50;;;;;;;;4976079;28;46340;-73
2024/02/02 07:50:43;;;;;;;;;13.00;11.67;;;;;;;;4971129;28;45301;-72
2024/02/02 07:53:08;;;;;;;;;12.67;12.67;;;;;;;;4978429;28;45600;-73
2024/02/02 07:55:33;;;;;;;;;12.25;10.25;;;;;;;;4972372;28;45399;-72
2024/02/02 07:57:59;;;;;;;;;14.33;12.67;;;;;;;;4968992;28;46627;-72
2024/02/02 08:00:24;;;;;;;;;11.33;10.00;;;;;;;;4979109;28;45364;-72
2024/02/02 08:02:49;;;;;;;;;20.00;18.67;;;;;;;;4975539;28;45591;-73
2024/02/02 08:05:14;;;;;;;;;15.25;13.25;;;;;;;;4952560;28;45675;-72
2024/02/02 08:07:39;;;;;;;;;12.00;11.67;;;;;;;;4967517;28;47189;-72
2024/02/02 08:10:05;;;;;;;;;15.00;12.00;;;;;;;;4952245;28;46017;-72
2024/02/02 08:12:30;;;;;;;;;13.50;13.50;;;;;;;;4976045;28;46347;-73
2024/02/02 08:14:55;;;;;;;;;16.00;13.00;;;;;;;;4978777;28;45448;-72
2024/02/02 08:17:20;;;;;;;;;12.33;10.00;;;;;;;;4954169;28;47167;-72
2024/02/02 08:19:46;;;;;;;;;10.33;9.00;;;;;;;;4972758;28;45463;-72
2024/02/02 08:22:11;;;;;;;;;16.00;12.00;;;;;;;;4975469;28;45368;-73
2024/02/02 08:24:36;;;;;;;;;9.00;7.33;;;;;;;;4962749;28;45831;-72
2024/02/02 08:27:01;;;;;;;;;12.00;9.67;;;;;;;;4973283;28;46422;-73
2024/02/02 08:29:26;;;;;;;;;11.00;9.00;;;;;;;;4977293;28;45466;-72
2024/02/02 08:31:52;;;;;;;;;9.00;9.00;;;;;;;;4957649;28;45750;-73
2024/02/02 08:34:17;;;;;;;;;15.00;13.00;;;;;;;;4965880;28;45382;-73
2024/02/02 08:36:42;;;;;;;;;10.50;8.50;;;;;;;;4974354;28;45773;-69
2024/02/02 08:39:11;;;;;;;;;8.67;8.67;;;;;;;;4975999;28;45523;-72
2024/02/02 08:41:36;;;;;;;;;9.00;7.00;;;;;;;;4973867;28;45389;-73
2024/02/02 08:44:04;;;;;;;;;10.75;9.50;;;;;;;;4955711;28;45347;-71
2024/02/02 08:46:35;;;;;;;;;7.25;7.25;;;;;;;;4954104;28;47118;-70
2024/02/02 08:49:01;;;;;;;;;12.75;8.00;;;;;;;;4978517;28;45678;-70
2024/02/02 08:51:36;;;;;;;;;9.75;7.00;;;;;;;;4976392;28;45653;-70
2024/02/02 08:54:05;;;;;;;;;11.00;8.00;;;;;;;;4976654;28;45612;-70
2024/02/02 08:56:30;;;;;;;;;11.25;9.00;;;;;;;;4967395;28;47125;-70
2024/02/02 08:58:56;;;;;;;;;8.00;7.67;;;;;;;;4972383;28;45361;-70
2024/02/02 09:01:21;;;;;;;;;9.00;8.00;;;;;;;;4968761;28;45488;-70
2024/02/02 09:03:47;;;;;;;;;7.00;7.00;;;;;;;;4961450;28;45606;-70
2024/02/02 09:06:12;;;;;;;;;10.00;9.75;;;;;;;;4975425;28;47738;-70
2024/02/02 09:08:39;;;;;;;;;13.00;11.33;;;;;;;;4975456;28;45738;-70
2024/02/02 09:11:05;;;;;;;;;6.75;6.75;;;;;;;;4969136;28;45391;-70
2024/02/02 09:13:32;;;;;;;;;10.00;8.00;;;;;;;;4975714;28;45492;-70
2024/02/02 09:15:57;;;;;;;;;10.25;10.25;;;;;;;;4968597;28;46534;-71
2024/02/02 09:18:36;;;;;;;;;13.67;10.00;;;;;;;;4976930;28;45417;-71
2024/02/02 09:21:02;;;;;;;;;11.50;11.50;;;;;;;;4972438;28;45429;-73
2024/02/02 09:23:28;;;;;;;;;9.25;8.00;;;;;;;;4977294;28;45396;-74
2024/02/02 09:25:54;;;;;;;;;8.25;8.00;;;;;;;;4957716;28;47478;-73
2024/02/02 09:28:25;;;;;;;;;10.00;10.00;;;;;;;;4954216;28;45518;-68
2024/02/02 09:31:03;;;;;;;;;8.00;6.75;;;;;;;;4953901;28;45440;-71
2024/02/02 09:33:31;;;;;;;;;11.50;9.00;;;;;;;;4975107;28;45515;-71
2024/02/02 09:36:02;;;;;;;;;12.00;11.00;;;;;;;;4961479;28;45522;-70
2024/02/02 09:38:29;;;;;;;;;13.50;11.50;;;;;;;;4955864;28;45501;-67
2024/02/02 09:41:00;;;;;;;;;13.75;11.75;;;;;;;;4965731;28;45648;-69
2024/02/02 09:43:43;;;;;;;;;9.75;9.50;;;;;;;;4970301;28;46042;-69
2024/02/02 09:46:22;;;;;;;;;17.00;15.00;;;;;;;;4973718;28;45546;-69
2024/02/02 09:48:51;;;;;;;;;13.00;12.00;;;;;;;;4978785;28;46201;-69
2024/02/02 09:51:35;;;;;;;;;15.00;10.75;;;;;;;;4954316;28;45447;-70
2024/02/02 09:54:12;;;;;;;;;14.75;12.25;;;;;;;;4959001;28;45501;-72
2024/02/02 09:56:56;;;;;;;;;6.75;6.75;;;;;;;;4975130;28;46923;-69
2024/02/02 09:59:27;;;;;;;;;15.00;11.25;;;;;;;;4980119;28;45642;-70
2024/02/02 10:01:53;;;;;;;;;10.25;10.00;;;;;;;;4975671;28;45683;-69
2024/02/02 10:04:37;;;;;;;;;12.67;12.67;;;;;;;;4974286;28;46071;-69
2024/02/02 10:07:22;;;;;;;;;10.25;10.25;;;;;;;;4975948;28;45560;-70
2024/02/02 10:09:47;;;;;;;;;8.50;8.00;;;;;;;;4973593;28;45805;-70
2024/02/02 10:12:17;;;;;;;;;13.00;10.00;;;;;;;;4975707;28;45438;-70
2024/02/02 10:14:57;;;;;;;;;8.25;7.75;;;;;;;;4982980;28;45465;-70
2024/02/02 10:17:40;;;;;;;;;15.00;10.50;;;;;;;;4979162;28;46441;-70
2024/02/02 10:20:05;;;;;;;;;11.00;11.00;;;;;;;;4969097;28;45433;-70
2024/02/02 10:22:49;;;;;;;;;14.00;11.33;;;;;;;;4978074;28;45512;-70
2024/02/02 10:25:14;;;;;;;;;13.50;9.50;;;;;;;;4970796;28;45801;-70
2024/02/02 10:28:00;;;;;;;;;8.67;7.67;;;;;;;;4962861;28;48364;-70
2024/02/02 10:30:32;;;;;;;;;14.50;13.25;;;;;;;;4964409;28;45578;-70
2024/02/02 10:33:05;;;;;;;;;13.75;12.50;;;;;;;;4983186;28;45333;-70
2024/02/02 10:35:36;;;;;;;;;13.00;11.50;;;;;;;;4975495;28;45660;-70
2024/02/02 10:38:12;;;;;;;;;12.00;12.00;;;;;;;;4955198;28;47529;-69
2024/02/02 10:40:49;;;;;;;;;15.50;13.75;;;;;;;;4972073;28;45433;-69
2024/02/02 10:43:23;;;;;;;;;13.00;12.25;;;;;;;;4974196;28;45458;-69
2024/02/02 10:46:00;;;;;;;;;16.25;13.50;;;;;;;;4972510;28;45508;-69
2024/02/02 10:48:34;;;;;;;;;16.75;14.50;;;;;;;;4972772;28;46816;-69
2024/02/02 10:51:05;;;;;;;;;13.50;13.50;;;;;;;;4963165;28;45763;-69
2024/02/02 10:53:42;;;;;;;;;17.00;14.75;;;;;;;;4974832;28;45732;-69
2024/02/02 10:56:10;;;;;;;;;13.25;12.50;;;;;;;;4971657;28;45677;-69
2024/02/02 10:58:38;;;;;;;;;15.50;13.75;;;;;;;;4969575;28;45745;-68
2024/02/02 11:01:03;;;;;;;;;19.50;13.75;;;;;;;;4951216;28;45699;-71
2024/02/02 11:03:48;;;;;;;;;18.00;13.75;;;;;;;;4971018;28;45481;-70
2024/02/02 11:06:20;;;;;;;;;8.75;8.75;;;;;;;;4974918;28;45355;-71
2024/02/02 11:08:54;;;;;;;;;12.50;12.50;;;;;;;;4971437;28;45664;-77
2024/02/02 11:11:22;;;;;;;;;14.50;14.25;;;;;;;;4952219;28;45495;-76
2024/02/02 11:13:56;;;;;;;;;12.00;9.50;;;;;;;;4944212;28;45398;-72
2024/02/02 11:16:37;;;;;;;;;12.25;9.00;;;;;;;;4949412;28;45370;-71
2024/02/02 11:19:09;;;;;;;;;12.75;12.75;;;;;;;;4960399;28;46376;-71
2024/02/02 11:21:43;;;;;;;;;11.50;9.25;;;;;;;;4964078;28;45441;-71
2024/02/02 11:24:17;;;;;;;;;11.50;9.00;;;;;;;;4976388;28;45421;-71
2024/02/02 11:26:48;;;;;;;;;14.00;12.75;;;;;;;;4974959;28;45520;-71
2024/02/02 11:29:25;;;;;;;;;9.00;9.00;;;;;;;;4947483;28;47093;-71
2024/02/02 11:32:02;;;;;;;;;12.00;9.75;;;;;;;;4965677;28;45632;-71
2024/02/02 11:34:41;;;;;;;;;8.00;8.00;;;;;;;;4966118;28;45366;-71
2024/02/02 11:37:12;;;;;;;;;15.00;12.50;;;;;;;;4953274;28;45584;-70
2024/02/02 11:39:54;;;;;;;;;10.25;10.00;;;;;;;;4978220;28;45520;-71
2024/02/02 11:42:20;;;;;;;;;9.75;8.25;;;;;;;;4979534;28;45350;-71
2024/02/02 11:44:46;;;;;;;;;7.50;7.50;;;;;;;;4978967;28;45458;-71
2024/02/02 11:47:12;;;;;;;;;6.00;5.67;;;;;;;;4942287;28;45387;-71
2024/02/02 11:49:40;;;;;;;;;10.50;9.25;;;;;;;;4952889;28;47153;-71
2024/02/02 11:52:13;;;;;;;;;10.00;9.00;;;;;;;;4977731;28;45386;-71
2024/02/02 11:54:44;;;;;;;;;8.25;7.75;;;;;;;;4973073;28;45525;-71
2024/02/02 11:57:15;;;;;;;;;7.50;7.50;;;;;;;;4966410;28;45429;-71
2024/02/02 11:59:43;;;;;;;;;8.75;8.25;;;;;;;;4974467;28;45457;-71
2024/02/02 12:02:27;;;;;;;;;13.50;11.25;;;;;;;;4975885;28;45377;-71
2024/02/02 12:05:00;;;;;;;;;8.75;8.75;;;;;;;;4968251;28;45599;-71
2024/02/02 12:07:38;;;;;;;;;8.75;8.75;;;;;;;;4960081;28;45451;-71
2024/02/02 12:10:04;;;;;;;;;12.25;10.00;;;;;;;;4967930;28;46684;-71
2024/02/02 12:12:37;;;;;;;;;8.00;7.50;;;;;;;;4954410;28;46543;-71
2024/02/02 12:15:04;;;;;;;;;7.25;7.25;;;;;;;;4979281;28;45385;-71
2024/02/02 12:17:29;;;;;;;;;8.25;8.25;;;;;;;;4973801;28;45641;-71
2024/02/02 12:19:57;;;;;;;;;5.67;5.00;;;;;;;;4961686;28;47069;-71
2024/02/02 12:22:22;;;;;;;;;6.75;6.75;;;;;;;;4977612;28;45584;-71
2024/02/02 12:24:47;;;;;;;;;10.25;8.00;;;;;;;;4974048;28;45610;-71
2024/02/02 12:27:13;;;;;;;;;12.33;10.33;;;;;;;;4973681;28;45680;-71
2024/02/02 12:29:38;;;;;;;;;9.25;9.25;;;;;;;;4973377;28;46834;-71
2024/02/02 12:32:05;;;;;;;;;9.00;9.00;;;;;;;;4976125;28;45320;-71
2024/02/02 12:34:30;;;;;;;;;2.00;2.00;;;;;;;;4974918;28;45459;-71
2024/02/02 12:36:58;;;;;;;;;10.33;9.67;;;;;;;;4953365;28;45764;-71
2024/02/02 12:39:24;;;;;;;;;14.50;13.25;;;;;;;;4973992;28;45661;-72
2024/02/02 12:41:50;;;;;;;;;12.25;10.75;;;;;;;;4972982;28;45250;-72
2024/02/02 12:44:15;;;;;;;;;8.25;8.25;;;;;;;;4968390;28;46949;-73
2024/02/02 12:46:42;;;;;;;;;10.67;9.00;;;;;;;;4973978;28;45577;-72
2024/02/02 12:49:07;;;;;;;;;6.25;6.25;;;;;;;;4975855;28;46423;-73
2024/02/02 12:51:32;;;;;;;;;11.67;11.67;;;;;;;;4970454;28;45368;-72
2024/02/02 12:53:57;;;;;;;;;9.33;9.33;;;;;;;;4942446;28;45459;-71
2024/02/02 12:56:22;;;;;;;;;12.67;11.67;;;;;;;;4951085;28;45732;-72
2024/02/02 12:58:48;;;;;;;;;8.00;8.00;;;;;;;;4955915;28;47536;-72
2024/02/02 13:01:13;;;;;;;;;12.00;8.00;;;;;;;;4973943;28;46024;-73
2024/02/02 13:03:39;;;;;;;;;10.00;7.75;;;;;;;;4968877;28;46052;-73
2024/02/02 13:06:04;;;;;;;;;10.00;10.00;;;;;;;;4966753;28;45953;-71
2024/02/02 13:08:30;;;;;;;;;9.00;8.00;;;;;;;;4967402;28;45728;-71
2024/02/02 13:10:56;;;;;;;;;9.00;8.00;;;;;;;;4955730;28;45830;-71
2024/02/02 13:13:23;;;;;;;;;8.75;8.75;;;;;;;;4973596;28;45453;-71
2024/02/02 13:15:48;;;;;;;;;10.00;10.00;;;;;;;;4973889;28;45619;-71
2024/02/02 13:18:16;;;;;;;;;8.67;8.67;;;;;;;;4974132;28;45631;-72
2024/02/02 13:20:44;;;;;;;;;8.00;6.00;;;;;;;;4972970;28;45953;-71
2024/02/02 13:23:15;;;;;;;;;20.25;19.75;;;;;;;;4970119;28;45893;-71
2024/02/02 13:25:40;;;;;;;;;9.50;9.50;;;;;;;;4968828;28;45453;-72
2024/02/02 13:28:12;;;;;;;;;10.75;7.50;;;;;;;;4954901;28;47215;-72
2024/02/02 13:30:37;;;;;;;;;6.00;6.00;;;;;;;;4972309;28;45864;-71
2024/02/02 13:33:07;;;;;;;;;9.00;6.00;;;;;;;;4971046;28;45578;-71
2024/02/02 13:35:32;;;;;;;;;7.75;7.75;;;;;;;;4971992;28;45484;-71
2024/02/02 13:37:57;;;;;;;;;10.00;9.33;;;;;;;;4965341;28;45373;-71
2024/02/02 13:40:27;;;;;;;;;8.00;8.00;;;;;;;;4971492;28;45667;-71
2024/02/02 13:42:54;;;;;;;;;7.50;5.50;;;;;;;;4973950;28;45612;-71
2024/02/02 13:45:19;;;;;;;;;9.50;6.75;;;;;;;;4965147;28;45460;-71
2024/02/02 13:47:52;;;;;;;;;11.50;10.25;;;;;;;;4961816;28;46036;-71
2024/02/02 13:50:29;;;;;;;;;7.25;6.00;;;;;;;;4968676;28;45805;-71
2024/02/02 13:52:55;;;;;;;;;8.75;8.00;;;;;;;;4973400;28;45585;-70
2024/02/02 13:55:20;;;;;;;;;8.00;8.00;;;;;;;;4972930;28;45429;-71
2024/02/02 13:57:46;;;;;;;;;7.25;6.00;;;;;;;;4967685;28;46034;-71
2024/02/02 14:00:13;;;;;;;;;10.00;10.00;;;;;;;;4951886;28;45457;-70
2024/02/02 14:02:38;;;;;;;;;9.25;7.00;;;;;;;;4976785;28;45388;-71
2024/02/02 14:05:05;;;;;;;;;9.33;6.00;;;;;;;;4973939;28;47036;-71
2024/02/02 14:07:30;;;;;;;;;7.25;7.25;;;;;;;;4975951;28;45478;-71
2024/02/02 14:09:59;;;;;;;;;9.00;8.75;;;;;;;;4969400;28;45361;-71
2024/02/02 14:12:25;;;;;;;;;11.00;7.25;;;;;;;;4976720;28;45406;-71
2024/02/02 14:14:50;;;;;;;;;5.75;5.00;;;;;;;;4956422;28;45707;-71
2024/02/02 14:17:18;;;;;;;;;8.00;8.00;;;;;;;;4964792;28;45381;-71
2024/02/02 14:19:43;;;;;;;;;8.75;7.25;;;;;;;;4977024;28;45765;-71
2024/02/02 14:22:10;;;;;;;;;8.75;6.75;;;;;;;;4965697;28;45445;-71
2024/02/02 14:24:46;;;;;;;;;7.25;6.25;;;;;;;;4968140;28;45473;-71